Time;durP1;ratioP1;P1;durP2;ratioP2;P2;SDS_P1;SDS_P2;PMS_P1;PMS_P2;Temp;Humidity;BMP_temperature;BMP_pressure;BME280_temperature;BME280_humidity;BME280_pressure;Samples;Min_cycle;Max_cycle;Signal;HPM_P1;HPM_P2
2023/12/09 00:01:22;;;;;;;11.07;7.40;;;-0.40;99.90;;;;;;5094629;28;20670;-78
2023/12/09 00:03:48;;;;;;;10.30;7.60;;;-0.50;99.90;;;;;;5093848;28;20251;-79
2023/12/09 00:06:13;;;;;;;12.87;8.33;;;-0.50;99.90;;;;;;5093795;28;20255;-80
2023/12/09 00:08:39;;;;;;;14.37;7.60;;;-0.50;99.90;;;;;;5092986;28;20307;-78
2023/12/09 00:11:05;;;;;;;10.13;7.60;;;-0.50;99.90;;;;;;5092881;28;20529;-80
2023/12/09 00:13:32;;;;;;;14.57;8.37;;;-0.50;99.90;;;;;;5075020;28;20185;-79
2023/12/09 00:15:58;;;;;;;12.33;7.77;;;-0.60;99.90;;;;;;5092805;28;20206;-78
2023/12/09 00:18:23;;;;;;;11.13;7.00;;;-0.60;99.90;;;;;;5095144;28;20567;-79
2023/12/09 00:20:49;;;;;;;12.90;7.83;;;-0.50;99.90;;;;;;5097800;28;20182;-76
2023/12/09 00:23:15;;;;;;;10.73;7.43;;;-0.50;99.90;;;;;;5102229;28;20172;-76
2023/12/09 00:25:41;;;;;;;10.90;8.03;;;-0.60;99.90;;;;;;5096695;28;20641;-79
2023/12/09 00:28:07;;;;;;;11.63;8.17;;;-0.60;99.90;;;;;;5091185;28;20169;-78
2023/12/09 00:30:33;;;;;;;11.60;8.27;;;-0.50;99.90;;;;;;5072927;28;20185;-78
2023/12/09 00:32:59;;;;;;;14.23;9.37;;;-0.50;99.90;;;;;;5073334;28;20178;-79
2023/12/09 00:35:24;;;;;;;16.03;8.70;;;-0.40;99.90;;;;;;5073316;28;20206;-75
2023/12/09 00:37:50;;;;;;;11.37;7.53;;;-0.40;99.90;;;;;;5072418;28;20167;-78
2023/12/09 00:40:18;;;;;;;11.60;7.90;;;-0.40;99.90;;;;;;5073047;28;20182;-78
2023/12/09 00:42:45;;;;;;;12.17;8.10;;;-0.50;99.90;;;;;;5054780;28;20638;-77
2023/12/09 00:45:11;;;;;;;10.13;8.10;;;-0.30;99.90;;;;;;5055025;28;20224;-77
2023/12/09 00:47:36;;;;;;;10.13;7.67;;;-0.40;99.90;;;;;;5084469;28;20238;-79
2023/12/09 00:50:02;;;;;;;12.80;7.70;;;-0.40;99.90;;;;;;5091651;28;20988;-78
2023/12/09 00:52:28;;;;;;;10.13;7.97;;;-0.50;99.90;;;;;;5083660;28;20194;-81
2023/12/09 00:54:54;;;;;;;11.40;8.23;;;-0.50;99.90;;;;;;5077289;28;20240;-80
2023/12/09 00:57:20;;;;;;;12.90;7.77;;;-0.50;99.90;;;;;;5076360;28;20723;-77
2023/12/09 00:59:47;;;;;;;11.57;7.67;;;-0.60;99.90;;;;;;5076461;28;20169;-77
2023/12/09 01:02:14;;;;;;;8.87;7.57;;;-0.60;99.90;;;;;;5075853;28;20207;-78
2023/12/09 01:04:39;;;;;;;9.97;7.33;;;-0.60;99.90;;;;;;5057129;28;20256;-78
2023/12/09 01:07:05;;;;;;;12.83;8.33;;;-0.50;99.90;;;;;;5075819;28;20256;-77
2023/12/09 01:09:31;;;;;;;10.33;7.63;;;-0.40;99.90;;;;;;5082440;28;20770;-78
2023/12/09 01:11:57;;;;;;;13.87;7.83;;;-0.30;99.90;;;;;;5093994;28;20178;-78
2023/12/09 01:14:23;;;;;;;11.47;8.00;;;-0.30;99.90;;;;;;5083672;28;20227;-77
2023/12/09 01:16:48;;;;;;;13.47;8.13;;;-0.20;99.90;;;;;;5076699;28;20181;-77
2023/12/09 01:19:14;;;;;;;9.87;7.33;;;0.00;99.90;;;;;;5065337;28;20177;-78
2023/12/09 01:21:40;;;;;;;13.30;8.40;;;-0.20;99.90;;;;;;5078258;28;20187;-79
2023/12/09 01:24:05;;;;;;;11.30;8.33;;;-0.20;99.90;;;;;;5076234;28;20590;-78
2023/12/09 01:26:31;;;;;;;13.93;7.50;;;-0.20;99.90;;;;;;5075750;28;20185;-79
2023/12/09 01:28:59;;;;;;;12.80;8.23;;;-0.20;99.90;;;;;;5076197;28;20197;-77
2023/12/09 01:31:25;;;;;;;11.63;7.90;;;-0.20;99.90;;;;;;5057022;28;20979;-78
2023/12/09 01:33:51;;;;;;;10.00;6.83;;;-0.20;99.90;;;;;;5078430;28;20182;-77
2023/12/09 01:36:17;;;;;;;10.57;7.63;;;-0.10;99.90;;;;;;5079493;28;20234;-79
2023/12/09 01:38:42;;;;;;;10.17;7.90;;;-0.10;99.90;;;;;;5075517;28;20179;-79
2023/12/09 01:41:08;;;;;;;11.93;7.50;;;-0.10;99.90;;;;;;5063918;28;20210;-77
2023/12/09 01:43:35;;;;;;;9.53;8.10;;;0.00;99.90;;;;;;5075843;28;20604;-78
2023/12/09 01:46:10;;;;;;;10.23;7.37;;;0.00;99.90;;;;;;5076216;28;20181;-78
2023/12/09 01:48:37;;;;;;;13.07;7.97;;;-0.10;99.90;;;;;;5075519;28;20525;-77
2023/12/09 01:51:04;;;;;;;12.73;7.57;;;-0.10;99.90;;;;;;5075574;28;20181;-78
2023/12/09 01:53:31;;;;;;;9.70;7.43;;;-0.20;99.90;;;;;;5075667;28;20208;-78
2023/12/09 01:56:01;;;;;;;11.40;7.37;;;-0.20;99.90;;;;;;5075593;28;20205;-78
2023/12/09 01:58:27;;;;;;;11.73;8.13;;;-0.30;99.90;;;;;;5074362;28;20166;-79
2023/12/09 02:00:54;;;;;;;8.77;7.10;;;-0.40;99.90;;;;;;5075304;28;20213;-78
2023/12/09 02:03:20;;;;;;;9.83;7.27;;;-0.60;99.90;;;;;;5075512;28;20197;-78
2023/12/09 02:05:45;;;;;;;9.20;7.57;;;-0.60;99.90;;;;;;5080946;28;20259;-75
2023/12/09 02:08:11;;;;;;;11.10;8.00;;;-0.60;99.90;;;;;;5080739;28;20228;-79
2023/12/09 02:10:38;;;;;;;14.10;8.13;;;-0.50;99.90;;;;;;5078353;28;20215;-78
2023/12/09 02:13:28;;;;;;;8.37;7.30;;;-0.50;99.90;;;;;;5075563;28;20178;-78
2023/12/09 02:16:22;;;;;;;10.80;7.60;;;-0.40;99.90;;;;;;5075162;28;20205;-80
2023/12/09 02:18:48;;;;;;;9.57;7.17;;;-0.40;99.90;;;;;;5065490;28;20692;-79
2023/12/09 02:21:14;;;;;;;10.97;7.17;;;-0.40;99.90;;;;;;5077057;28;20261;-80
2023/12/09 02:23:40;;;;;;;9.73;7.43;;;-0.50;99.90;;;;;;5079958;28;20259;-80
2023/12/09 02:26:30;;;;;;;10.73;7.90;;;-0.40;99.90;;;;;;5075411;28;20178;-79
2023/12/09 02:29:00;;;;;;;11.40;7.80;;;-0.40;99.90;;;;;;5074011;28;20196;-81
2023/12/09 02:31:30;;;;;;;12.27;7.70;;;-0.40;99.90;;;;;;5057412;28;20177;-80
2023/12/09 02:33:59;;;;;;;12.50;8.13;;;-0.20;99.90;;;;;;5074663;28;20263;-78
2023/12/09 02:36:28;;;;;;;11.23;7.97;;;-0.10;99.90;;;;;;5057016;28;20231;-78
2023/12/09 02:38:56;;;;;;;12.27;7.67;;;-0.10;99.90;;;;;;5057051;28;20196;-78
2023/12/09 02:41:23;;;;;;;10.27;7.83;;;-0.10;99.90;;;;;;5056594;28;20173;-78
2023/12/09 02:43:49;;;;;;;13.60;7.97;;;-0.10;99.90;;;;;;5074764;28;20170;-78
2023/12/09 02:46:15;;;;;;;12.10;7.70;;;-0.10;99.90;;;;;;5074025;28;20171;-80
2023/12/09 02:48:41;;;;;;;9.73;7.40;;;-0.10;99.90;;;;;;5074454;28;20171;-77
2023/12/09 02:51:07;;;;;;;13.13;7.63;;;-0.20;99.90;;;;;;5074530;28;20619;-78
2023/12/09 02:53:34;;;;;;;14.80;8.10;;;-0.30;99.90;;;;;;5056790;28;20182;-79
2023/12/09 02:56:00;;;;;;;9.70;7.37;;;-0.30;99.90;;;;;;5083908;28;20209;-76
2023/12/09 02:58:25;;;;;;;9.37;7.50;;;-0.40;99.90;;;;;;5085696;28;20264;-77
2023/12/09 03:00:51;;;;;;;11.93;8.20;;;-0.30;99.90;;;;;;5076115;28;20215;-77
2023/12/09 03:03:17;;;;;;;10.90;7.17;;;-0.30;99.90;;;;;;5084392;28;20178;-78
2023/12/09 03:05:43;;;;;;;8.97;6.73;;;-0.50;99.90;;;;;;5084733;28;20182;-78
2023/12/09 03:08:08;;;;;;;12.07;7.47;;;-0.30;99.90;;;;;;5065668;28;20227;-78
2023/12/09 03:10:34;;;;;;;11.07;8.37;;;-0.20;99.90;;;;;;5084847;28;20196;-78
2023/12/09 03:13:00;;;;;;;17.07;11.23;;;-0.20;99.90;;;;;;5083049;28;20226;-79
2023/12/09 03:15:26;;;;;;;17.27;12.37;;;-0.10;99.90;;;;;;5074638;28;20710;-78
2023/12/09 03:17:51;;;;;;;23.27;15.07;;;-0.10;99.90;;;;;;5075715;28;20261;-78
2023/12/09 03:20:18;;;;;;;25.30;15.37;;;-0.10;99.90;;;;;;5081125;28;20201;-78
2023/12/09 03:22:43;;;;;;;21.87;14.37;;;0.00;99.90;;;;;;5071862;28;20170;-78
2023/12/09 03:25:09;;;;;;;28.83;15.63;;;0.00;99.90;;;;;;5085152;28;20236;-77
2023/12/09 03:27:35;;;;;;;22.87;14.90;;;0.00;99.90;;;;;;5079341;28;20182;-79
2023/12/09 03:30:00;;;;;;;25.27;15.83;;;0.10;99.90;;;;;;5078484;28;20197;-78
2023/12/09 03:32:26;;;;;;;22.97;15.27;;;0.10;99.90;;;;;;5073089;28;20167;-78
2023/12/09 03:34:52;;;;;;;23.73;15.53;;;0.10;99.90;;;;;;5074342;28;20208;-78
2023/12/09 03:37:19;;;;;;;26.63;16.00;;;0.00;99.90;;;;;;5073810;28;20174;-80
2023/12/09 03:39:45;;;;;;;22.70;15.13;;;0.00;99.90;;;;;;5073558;28;20177;-78
2023/12/09 03:42:10;;;;;;;22.47;15.50;;;0.00;99.90;;;;;;5074297;28;20183;-79
2023/12/09 03:44:36;;;;;;;21.63;14.63;;;0.00;99.90;;;;;;5055996;28;20707;-78
2023/12/09 03:47:02;;;;;;;23.00;15.20;;;0.00;99.90;;;;;;5074138;28;20231;-78
2023/12/09 03:49:28;;;;;;;28.07;14.87;;;0.00;99.90;;;;;;5074753;28;20170;-79
2023/12/09 03:51:53;;;;;;;22.73;15.00;;;0.00;99.90;;;;;;5087331;28;20189;-77
2023/12/09 03:54:19;;;;;;;22.53;14.33;;;0.00;99.90;;;;;;5077840;28;20216;-76
2023/12/09 03:56:45;;;;;;;20.73;14.40;;;0.00;99.90;;;;;;5078102;28;20178;-79
2023/12/09 03:59:11;;;;;;;27.07;15.23;;;-0.10;99.90;;;;;;5086585;28;20169;-79
2023/12/09 04:01:46;;;;;;;22.10;14.73;;;-0.70;99.90;;;;;;5056056;28;20268;-78
2023/12/09 04:04:12;;;;;;;22.53;14.83;;;-0.20;99.90;;;;;;5073148;28;20217;-79
2023/12/09 04:06:37;;;;;;;23.67;15.13;;;-0.10;99.90;;;;;;5072377;28;20681;-78
2023/12/09 04:09:04;;;;;;;25.97;15.43;;;0.00;99.90;;;;;;5072410;28;20623;-76
2023/12/09 04:11:30;;;;;;;23.17;15.50;;;0.10;99.90;;;;;;5072930;28;20184;-78
2023/12/09 04:13:55;;;;;;;23.13;14.80;;;0.10;99.90;;;;;;5074811;28;20174;-78
2023/12/09 04:16:21;;;;;;;29.40;16.97;;;0.10;99.90;;;;;;5073911;28;20212;-77
2023/12/09 04:18:47;;;;;;;20.80;15.40;;;0.00;99.90;;;;;;5085178;28;20178;-77
2023/12/09 04:21:12;;;;;;;23.20;15.77;;;-0.10;99.90;;;;;;5090136;28;20200;-78
2023/12/09 04:23:38;;;;;;;24.53;16.17;;;-0.20;99.90;;;;;;5088717;28;20245;-78
2023/12/09 04:26:04;;;;;;;24.27;15.50;;;-0.40;99.90;;;;;;5059355;28;20636;-77
2023/12/09 04:28:30;;;;;;;25.20;15.57;;;-0.40;99.90;;;;;;5077021;28;20652;-79
2023/12/09 04:30:56;;;;;;;24.67;15.17;;;-0.40;99.90;;;;;;5076773;28;20176;-76
2023/12/09 04:33:23;;;;;;;24.70;15.47;;;-0.40;99.90;;;;;;5076610;28;20178;-77
2023/12/09 04:35:49;;;;;;;22.87;14.93;;;-0.60;99.90;;;;;;5076362;28;20551;-77
2023/12/09 04:38:15;;;;;;;24.70;15.20;;;-0.60;99.90;;;;;;5076454;28;20174;-79
2023/12/09 04:40:42;;;;;;;22.70;14.83;;;-0.60;99.90;;;;;;5078013;28;20652;-78
2023/12/09 04:43:08;;;;;;;23.43;15.00;;;-0.60;99.90;;;;;;5093043;28;20161;-78
2023/12/09 04:45:35;;;;;;;22.83;14.73;;;-0.60;99.90;;;;;;5095219;28;20176;-78
2023/12/09 04:48:04;;;;;;;22.57;15.20;;;-0.60;99.90;;;;;;5081952;28;20181;-81
2023/12/09 04:50:30;;;;;;;24.63;15.23;;;-0.40;99.90;;;;;;5080965;28;20235;-81
2023/12/09 04:52:56;;;;;;;25.47;14.73;;;-0.40;99.90;;;;;;5077086;28;20168;-79
2023/12/09 04:55:21;;;;;;;20.60;14.87;;;-0.20;99.90;;;;;;5076706;28;20579;-77
2023/12/09 04:57:47;;;;;;;23.83;15.00;;;-0.10;99.90;;;;;;5077685;28;20168;-77
2023/12/09 05:00:13;;;;;;;22.30;13.87;;;-0.20;99.90;;;;;;5059390;28;20191;-78
2023/12/09 05:02:39;;;;;;;24.17;14.73;;;-0.30;99.90;;;;;;5076872;28;20233;-76
2023/12/09 05:05:05;;;;;;;21.53;13.90;;;-0.10;99.90;;;;;;5058668;28;20268;-80
2023/12/09 05:07:31;;;;;;;24.17;14.27;;;0.00;99.90;;;;;;5076498;28;20169;-78
2023/12/09 05:09:57;;;;;;;20.67;13.33;;;-0.20;99.90;;;;;;5076864;28;20579;-76
2023/12/09 05:12:23;;;;;;;14.17;9.63;;;-0.30;99.90;;;;;;5076157;28;20175;-76
2023/12/09 05:14:48;;;;;;;11.37;8.10;;;-0.30;99.90;;;;;;5076111;28;20197;-79
2023/12/09 05:17:15;;;;;;;10.63;7.07;;;-0.40;99.90;;;;;;5076579;28;20203;-78
2023/12/09 05:19:40;;;;;;;10.03;7.77;;;-0.50;99.90;;;;;;5077157;28;20625;-79
2023/12/09 05:22:07;;;;;;;9.97;7.03;;;-0.40;99.90;;;;;;5058272;28;20184;-81
2023/12/09 05:24:32;;;;;;;11.57;7.77;;;-0.50;99.90;;;;;;5058868;28;20184;-79
2023/12/09 05:26:58;;;;;;;11.03;7.80;;;-0.40;99.90;;;;;;5076944;28;20239;-78
2023/12/09 05:29:24;;;;;;;10.33;8.00;;;-0.30;99.90;;;;;;5075937;28;20238;-78
2023/12/09 05:31:50;;;;;;;11.73;7.63;;;-0.30;99.90;;;;;;5076481;28;20194;-78
2023/12/09 05:34:16;;;;;;;10.93;7.63;;;-0.20;99.90;;;;;;5061639;28;20181;-77
2023/12/09 05:36:41;;;;;;;9.53;7.90;;;-0.30;99.90;;;;;;5082034;28;20186;-79
2023/12/09 05:39:07;;;;;;;11.30;7.97;;;-0.50;99.90;;;;;;5076664;28;20178;-77
2023/12/09 05:41:33;;;;;;;11.93;7.87;;;-0.60;99.90;;;;;;5076299;28;20262;-79
2023/12/09 05:43:59;;;;;;;11.77;7.70;;;-0.60;99.90;;;;;;5076782;28;20173;-79
2023/12/09 05:46:25;;;;;;;11.67;8.23;;;-0.60;99.90;;;;;;5080517;28;20205;-80
2023/12/09 05:48:50;;;;;;;10.97;7.83;;;-0.70;99.90;;;;;;5088828;28;20258;-77
2023/12/09 05:51:16;;;;;;;12.90;8.57;;;-0.60;99.90;;;;;;5086006;28;20185;-79
2023/12/09 05:53:42;;;;;;;12.43;8.63;;;-0.70;99.90;;;;;;5080711;28;20515;-78
2023/12/09 05:56:10;;;;;;;12.23;7.90;;;-0.50;99.90;;;;;;5057430;28;20218;-76
2023/12/09 05:58:36;;;;;;;12.07;8.07;;;-0.50;99.90;;;;;;5074682;28;20177;-80
2023/12/09 06:01:02;;;;;;;10.93;7.70;;;-0.50;99.90;;;;;;5075948;28;20181;-77
2023/12/09 06:03:28;;;;;;;11.73;8.13;;;-0.60;99.90;;;;;;5058601;28;20601;-79
2023/12/09 06:05:54;;;;;;;11.13;8.37;;;-0.50;99.90;;;;;;5075691;28;20258;-79
2023/12/09 06:08:20;;;;;;;12.07;8.17;;;-0.50;99.90;;;;;;5075140;28;20962;-79
2023/12/09 06:10:45;;;;;;;11.70;8.03;;;-0.60;99.90;;;;;;5075970;28;20628;-80
2023/12/09 06:13:11;;;;;;;9.33;7.30;;;-0.70;99.90;;;;;;5075051;28;20591;-79
2023/12/09 06:15:37;;;;;;;12.00;8.70;;;-0.60;99.90;;;;;;5076558;28;20292;-76
2023/12/09 06:18:03;;;;;;;13.67;8.10;;;-0.60;99.90;;;;;;5077266;28;20172;-79
2023/12/09 06:20:29;;;;;;;10.73;7.87;;;-0.70;99.90;;;;;;5064948;28;20186;-78
2023/12/09 06:22:54;;;;;;;11.17;8.53;;;-0.60;99.90;;;;;;5086357;28;20176;-78
2023/12/09 06:25:20;;;;;;;14.43;9.60;;;-0.50;99.90;;;;;;5088973;28;20176;-76
2023/12/09 06:27:46;;;;;;;12.83;8.73;;;-0.50;99.90;;;;;;5075872;28;20244;-79
2023/12/09 06:30:12;;;;;;;11.93;8.53;;;-0.40;99.90;;;;;;5083540;28;20203;-78
2023/12/09 06:32:39;;;;;;;14.53;8.63;;;-0.40;99.90;;;;;;5077135;28;20192;-78
2023/12/09 06:35:05;;;;;;;14.10;8.07;;;-0.50;99.90;;;;;;5078634;28;20627;-78
2023/12/09 06:37:30;;;;;;;13.13;8.87;;;-0.60;99.90;;;;;;5074805;28;20629;-78
2023/12/09 06:39:56;;;;;;;13.93;8.87;;;-0.60;99.90;;;;;;5074393;28;20184;-77
2023/12/09 06:42:22;;;;;;;12.87;8.37;;;-0.60;99.90;;;;;;5061874;28;20176;-78
2023/12/09 06:44:48;;;;;;;11.00;8.30;;;-0.40;99.90;;;;;;5094127;28;20162;-77
2023/12/09 06:47:14;;;;;;;10.70;7.70;;;-0.30;99.90;;;;;;5094317;28;20205;-79
2023/12/09 06:49:41;;;;;;;15.23;9.00;;;-0.30;99.90;;;;;;5094000;28;20183;-76
2023/12/09 06:52:07;;;;;;;12.33;8.17;;;-0.40;99.90;;;;;;5094188;28;20177;-76
2023/12/09 06:54:33;;;;;;;23.00;13.67;;;-0.50;99.90;;;;;;5094531;28;20733;-77
2023/12/09 06:56:58;;;;;;;12.23;8.57;;;-0.50;99.90;;;;;;5094079;28;20235;-77
2023/12/09 06:59:25;;;;;;;10.40;8.77;;;-0.50;99.90;;;;;;5093648;28;20621;-75
2023/12/09 07:01:51;;;;;;;13.43;9.07;;;-0.40;99.90;;;;;;5076062;28;20191;-78
2023/12/09 07:04:17;;;;;;;16.07;8.97;;;-0.40;99.90;;;;;;5094503;28;20585;-77
2023/12/09 07:06:43;;;;;;;13.80;8.43;;;-0.30;99.90;;;;;;5094259;28;20589;-78
2023/12/09 07:09:09;;;;;;;13.70;9.30;;;-0.40;99.90;;;;;;5093367;28;20224;-79
2023/12/09 07:11:35;;;;;;;11.63;9.03;;;-0.30;99.90;;;;;;5094047;28;20242;-78
2023/12/09 07:14:00;;;;;;;12.23;9.23;;;-0.40;99.90;;;;;;5093648;28;20521;-76
2023/12/09 07:16:26;;;;;;;13.60;8.47;;;-0.30;99.90;;;;;;5094867;28;20550;-77
2023/12/09 07:18:58;;;;;;;13.93;9.00;;;-0.30;99.90;;;;;;5101733;28;20212;-77
2023/12/09 07:21:28;;;;;;;13.80;8.80;;;-0.20;99.90;;;;;;5100125;28;20197;-78
2023/12/09 07:23:55;;;;;;;13.13;8.47;;;-0.10;99.90;;;;;;5095983;28;20169;-78
2023/12/09 07:26:21;;;;;;;13.23;8.70;;;0.00;99.90;;;;;;5096751;28;20196;-79
2023/12/09 07:28:47;;;;;;;13.90;9.60;;;0.00;99.90;;;;;;5093771;28;20215;-80
2023/12/09 07:31:14;;;;;;;12.03;9.07;;;0.10;99.90;;;;;;5093950;28;20219;-79
2023/12/09 07:33:42;;;;;;;16.37;9.23;;;0.10;99.90;;;;;;5094122;28;20207;-80
2023/12/09 07:36:08;;;;;;;17.53;9.27;;;0.00;99.90;;;;;;5094051;28;20208;-79
2023/12/09 07:38:33;;;;;;;12.27;8.70;;;-0.10;99.90;;;;;;5093829;28;20208;-80
2023/12/09 07:40:59;;;;;;;14.57;9.90;;;-0.20;99.90;;;;;;5075724;28;20178;-81
2023/12/09 07:43:25;;;;;;;12.33;9.00;;;-0.30;99.90;;;;;;5093552;28;20191;-79
2023/12/09 07:45:51;;;;;;;15.40;9.33;;;-0.40;99.90;;;;;;5093478;28;20645;-77
2023/12/09 07:48:17;;;;;;;16.43;10.93;;;-0.30;99.90;;;;;;5092863;28;20179;-77
2023/12/09 07:50:43;;;;;;;14.63;10.43;;;-0.20;99.90;;;;;;5093815;28;20168;-79
2023/12/09 07:53:09;;;;;;;14.60;10.70;;;-0.10;99.90;;;;;;5093719;28;20969;-77
2023/12/09 07:55:34;;;;;;;16.70;11.30;;;0.10;99.90;;;;;;5094477;28;20235;-78
2023/12/09 07:58:00;;;;;;;15.27;11.70;;;0.10;99.90;;;;;;5097576;28;20251;-77
2023/12/09 08:00:29;;;;;;;16.83;11.23;;;0.20;99.90;;;;;;5101389;28;20188;-76
2023/12/09 08:02:55;;;;;;;16.70;12.00;;;0.30;99.90;;;;;;5100426;28;20184;-78
2023/12/09 08:05:24;;;;;;;17.93;12.13;;;0.20;99.90;;;;;;5098374;28;20188;-78
2023/12/09 08:07:50;;;;;;;15.83;11.17;;;0.00;99.90;;;;;;5097455;28;20375;-79
2023/12/09 08:10:17;;;;;;;18.83;11.73;;;0.10;99.90;;;;;;5098672;28;20190;-75
2023/12/09 08:12:42;;;;;;;22.80;13.60;;;0.60;99.90;;;;;;5100093;28;20219;-78
2023/12/09 08:15:09;;;;;;;22.40;13.67;;;0.90;99.90;;;;;;5114121;28;20205;-77
2023/12/09 08:17:34;;;;;;;18.80;13.90;;;0.70;99.90;;;;;;5109671;28;20215;-76
2023/12/09 08:20:00;;;;;;;21.70;14.07;;;0.70;99.90;;;;;;5116120;28;20184;-77
2023/12/09 08:22:26;;;;;;;20.50;14.17;;;0.60;99.90;;;;;;5087947;28;20537;-80
2023/12/09 08:24:52;;;;;;;21.67;15.27;;;0.60;99.90;;;;;;5097583;28;20200;-77
2023/12/09 08:27:18;;;;;;;27.90;15.90;;;1.00;99.90;;;;;;5086724;28;20217;-78
2023/12/09 08:29:44;;;;;;;24.77;15.37;;;0.80;99.90;;;;;;5078045;28;20714;-81
2023/12/09 08:32:10;;;;;;;24.37;16.00;;;0.90;99.90;;;;;;5077386;28;20192;-77
2023/12/09 08:34:36;;;;;;;26.03;16.30;;;0.90;99.90;;;;;;5077630;28;20300;-77
2023/12/09 08:37:02;;;;;;;22.37;15.50;;;0.90;99.90;;;;;;5058388;28;20228;-75
2023/12/09 08:39:27;;;;;;;24.67;16.53;;;0.90;99.90;;;;;;5078912;28;20195;-75
2023/12/09 08:41:53;;;;;;;24.03;15.73;;;0.90;99.90;;;;;;5080019;28;20174;-78
2023/12/09 08:44:19;;;;;;;22.73;15.87;;;0.80;99.90;;;;;;5059184;28;20708;-76
2023/12/09 08:46:45;;;;;;;21.73;15.37;;;0.70;99.90;;;;;;5077039;28;20518;-78
2023/12/09 08:49:12;;;;;;;24.40;16.90;;;0.50;99.90;;;;;;5077259;28;20199;-77
2023/12/09 08:51:48;;;;;;;23.90;16.47;;;0.50;99.90;;;;;;5077455;28;20170;-76
2023/12/09 08:54:14;;;;;;;24.20;16.07;;;0.40;99.90;;;;;;5059477;28;20533;-81
2023/12/09 08:56:40;;;;;;;27.27;17.60;;;0.30;99.90;;;;;;5077740;28;20513;-77
2023/12/09 08:59:08;;;;;;;24.77;17.47;;;0.20;99.90;;;;;;5090355;28;20171;-77
2023/12/09 09:01:37;;;;;;;25.13;16.87;;;0.20;99.90;;;;;;5086717;28;20198;-79
2023/12/09 09:04:03;;;;;;;29.47;17.20;;;0.20;99.90;;;;;;5079862;28;20699;-78
2023/12/09 09:06:29;;;;;;;24.93;17.07;;;0.30;99.90;;;;;;5078041;28;20258;-79
2023/12/09 09:08:55;;;;;;;25.27;17.03;;;0.20;99.90;;;;;;5077321;28;20624;-78
2023/12/09 09:11:21;;;;;;;23.27;16.27;;;0.30;99.90;;;;;;5077044;28;20173;-80
2023/12/09 09:13:47;;;;;;;25.77;16.93;;;0.30;99.90;;;;;;5077167;28;20183;-78
2023/12/09 09:16:16;;;;;;;26.03;16.23;;;0.40;99.90;;;;;;5077120;28;20732;-79
2023/12/09 09:18:42;;;;;;;25.33;18.57;;;0.60;99.90;;;;;;5077363;28;20650;-79
2023/12/09 09:21:08;;;;;;;24.57;16.70;;;0.70;99.90;;;;;;5078865;28;20179;-79
2023/12/09 09:23:34;;;;;;;22.17;15.93;;;0.70;99.90;;;;;;5077683;28;20175;-79
2023/12/09 09:26:00;;;;;;;21.43;15.63;;;0.70;99.90;;;;;;5079854;28;20524;-76
2023/12/09 09:28:27;;;;;;;24.20;16.60;;;0.80;99.90;;;;;;5077281;28;20182;-78
2023/12/09 09:30:53;;;;;;;23.93;16.03;;;1.00;99.90;;;;;;5076974;28;20688;-76
2023/12/09 09:33:19;;;;;;;27.20;16.70;;;1.20;99.90;;;;;;5077332;28;20167;-76
2023/12/09 09:35:46;;;;;;;23.33;16.87;;;1.20;99.90;;;;;;5079800;28;20203;-77
2023/12/09 09:38:11;;;;;;;27.20;16.53;;;1.10;99.90;;;;;;5078651;28;20171;-77
2023/12/09 09:40:37;;;;;;;23.20;16.57;;;1.10;99.90;;;;;;5076710;28;20227;-77
2023/12/09 09:43:11;;;;;;;24.17;17.53;;;1.10;99.90;;;;;;5076615;28;20180;-78
2023/12/09 09:45:40;;;;;;;23.10;17.17;;;1.10;99.90;;;;;;5059599;28;20242;-77
2023/12/09 09:48:10;;;;;;;26.90;17.77;;;0.80;99.90;;;;;;5059004;28;20170;-80
2023/12/09 09:50:44;;;;;;;26.40;17.03;;;0.70;99.90;;;;;;5076715;28;20158;-77
2023/12/09 09:53:12;;;;;;;27.87;17.27;;;0.70;99.90;;;;;;5076951;28;20154;-77
2023/12/09 09:55:42;;;;;;;25.90;17.87;;;0.80;99.90;;;;;;5076834;28;20240;-76
2023/12/09 09:58:08;;;;;;;27.00;17.43;;;0.90;99.90;;;;;;5077674;28;20639;-77
2023/12/09 10:00:34;;;;;;;25.73;16.80;;;1.00;99.90;;;;;;5090492;28;20200;-77
2023/12/09 10:03:00;;;;;;;25.00;17.27;;;1.20;99.90;;;;;;5079689;28;20167;-78
2023/12/09 10:05:27;;;;;;;25.00;16.33;;;1.20;99.90;;;;;;5085479;28;20620;-78
2023/12/09 10:07:55;;;;;;;27.97;17.13;;;1.30;99.90;;;;;;5074771;28;20521;-75
2023/12/09 10:10:22;;;;;;;24.43;17.43;;;1.60;99.90;;;;;;5075641;28;20167;-77
2023/12/09 10:12:47;;;;;;;21.33;16.77;;;1.70;99.90;;;;;;5075095;28;20171;-77
2023/12/09 10:15:13;;;;;;;26.90;17.83;;;1.80;99.90;;;;;;5088455;28;20219;-76
2023/12/09 10:17:39;;;;;;;26.80;18.73;;;1.80;99.90;;;;;;5082887;28;20175;-78
2023/12/09 10:20:06;;;;;;;28.07;18.17;;;1.80;99.90;;;;;;5075585;28;20237;-77
2023/12/09 10:22:32;;;;;;;27.07;18.77;;;2.00;99.90;;;;;;5075769;28;20201;-78
2023/12/09 10:24:58;;;;;;;27.77;17.23;;;1.90;99.90;;;;;;5075008;28;20244;-77
2023/12/09 10:27:25;;;;;;;24.40;16.87;;;1.80;99.90;;;;;;5075214;28;20186;-78
2023/12/09 10:29:58;;;;;;;25.77;16.63;;;1.70;99.90;;;;;;5074632;28;20174;-78
2023/12/09 10:32:26;;;;;;;23.13;16.63;;;1.80;99.90;;;;;;5074758;28;20573;-77
2023/12/09 10:34:52;;;;;;;24.33;16.93;;;1.80;99.90;;;;;;5074696;28;20235;-78
2023/12/09 10:37:18;;;;;;;23.60;16.97;;;1.80;99.90;;;;;;5075836;28;20171;-76
2023/12/09 10:39:45;;;;;;;28.97;16.73;;;1.80;99.90;;;;;;5076564;28;20585;-76
2023/12/09 10:42:12;;;;;;;27.63;16.67;;;1.70;99.90;;;;;;5089423;28;20181;-77
2023/12/09 10:44:39;;;;;;;22.13;16.10;;;1.80;99.90;;;;;;5095310;28;20282;-76
2023/12/09 10:47:06;;;;;;;22.47;16.00;;;1.80;99.90;;;;;;5079298;28;20183;-77
2023/12/09 10:49:33;;;;;;;27.57;18.13;;;1.80;99.90;;;;;;5057156;28;20199;-80
2023/12/09 10:51:59;;;;;;;22.27;15.87;;;1.70;99.90;;;;;;5074579;28;20651;-78
2023/12/09 10:54:25;;;;;;;24.37;16.40;;;1.60;99.90;;;;;;5074439;28;20217;-77
2023/12/09 10:56:51;;;;;;;21.87;16.37;;;1.60;99.90;;;;;;5075335;28;20167;-76
2023/12/09 10:59:17;;;;;;;21.23;14.90;;;1.70;99.90;;;;;;5075271;28;20189;-77
2023/12/09 11:01:45;;;;;;;21.77;15.20;;;1.60;99.90;;;;;;5074629;28;20172;-77
2023/12/09 11:04:12;;;;;;;21.13;15.57;;;1.60;99.90;;;;;;5075337;28;20171;-76
2023/12/09 11:06:40;;;;;;;23.40;14.83;;;1.60;99.90;;;;;;5073676;28;20195;-78
2023/12/09 11:09:07;;;;;;;21.90;14.57;;;1.60;99.90;;;;;;5074153;28;20212;-77
2023/12/09 11:11:37;;;;;;;23.50;16.30;;;1.60;99.90;;;;;;5074410;28;20190;-77
2023/12/09 11:14:07;;;;;;;25.67;16.50;;;1.60;99.90;;;;;;5075879;28;20171;-76
2023/12/09 11:16:33;;;;;;;24.57;16.30;;;1.60;99.90;;;;;;5075924;28;20215;-77
2023/12/09 11:18:59;;;;;;;21.27;15.73;;;1.60;99.90;;;;;;5076640;28;20176;-77
2023/12/09 11:21:26;;;;;;;24.67;16.27;;;1.60;99.90;;;;;;5075439;28;20198;-78
2023/12/09 11:23:53;;;;;;;21.90;15.43;;;1.70;99.90;;;;;;5075890;28;20546;-76
2023/12/09 11:26:27;;;;;;;21.20;15.87;;;1.70;99.90;;;;;;5074427;28;20185;-77
2023/12/09 11:29:12;;;;;;;24.20;15.97;;;1.70;99.90;;;;;;5074300;28;20210;-77
2023/12/09 11:31:49;;;;;;;21.13;15.23;;;1.70;99.90;;;;;;5074312;28;20189;-77
2023/12/09 11:34:20;;;;;;;25.60;15.07;;;1.70;99.90;;;;;;5082773;28;20190;-77
2023/12/09 11:36:48;;;;;;;25.20;15.23;;;1.80;99.90;;;;;;5077151;28;20203;-79
2023/12/09 11:39:17;;;;;;;25.93;16.70;;;1.70;99.90;;;;;;5073873;28;20177;-78
2023/12/09 11:41:44;;;;;;;23.17;15.63;;;1.80;99.90;;;;;;5074497;28;20178;-77
2023/12/09 11:44:11;;;;;;;21.30;15.67;;;1.70;99.90;;;;;;5074514;28;20630;-76
2023/12/09 11:46:38;;;;;;;23.90;15.33;;;1.70;99.90;;;;;;5073563;28;20175;-78
2023/12/09 11:49:06;;;;;;;24.03;15.90;;;1.80;99.90;;;;;;5084589;28;20189;-78
2023/12/09 11:51:34;;;;;;;24.00;16.47;;;1.80;99.90;;;;;;5086688;28;20174;-78
2023/12/09 11:54:05;;;;;;;23.23;17.50;;;1.90;99.90;;;;;;5076334;28;20620;-79
2023/12/09 11:56:31;;;;;;;23.17;15.63;;;1.90;99.90;;;;;;5073692;28;20201;-77
2023/12/09 11:58:58;;;;;;;22.77;16.00;;;1.90;99.90;;;;;;5074404;28;20592;-77
2023/12/09 12:01:31;;;;;;;23.63;15.97;;;1.90;99.90;;;;;;5073597;28;20227;-79
2023/12/09 12:03:58;;;;;;;23.17;16.97;;;1.90;99.90;;;;;;5074146;28;20623;-79
2023/12/09 12:06:24;;;;;;;23.37;17.00;;;1.80;99.90;;;;;;5074395;28;20191;-78
2023/12/09 12:08:51;;;;;;;24.57;16.87;;;1.90;99.90;;;;;;5074249;28;20240;-79
2023/12/09 12:11:20;;;;;;;26.93;17.13;;;2.00;99.90;;;;;;5074070;28;20175;-77
2023/12/09 12:13:46;;;;;;;24.80;17.43;;;2.00;99.90;;;;;;5056270;28;20192;-80
2023/12/09 12:16:12;;;;;;;24.43;16.77;;;2.00;99.90;;;;;;5075056;28;20756;-79
2023/12/09 12:18:38;;;;;;;24.73;18.07;;;2.00;99.90;;;;;;5075601;28;20185;-77
2023/12/09 12:21:07;;;;;;;26.40;18.83;;;2.00;99.90;;;;;;5085815;28;20265;-76
2023/12/09 12:23:34;;;;;;;26.13;17.90;;;2.00;99.90;;;;;;5058124;28;20190;-77
2023/12/09 12:26:00;;;;;;;23.87;16.93;;;2.00;99.90;;;;;;5084015;28;20181;-77
2023/12/09 12:28:26;;;;;;;23.13;17.10;;;2.00;99.90;;;;;;5081762;28;20169;-76
2023/12/09 12:30:59;;;;;;;27.27;16.90;;;2.00;99.90;;;;;;5079422;28;20180;-76
2023/12/09 12:33:26;;;;;;;22.93;16.17;;;2.10;99.90;;;;;;5063097;28;20177;-77